sensor_id;sensor_type;location;lat;lon;timestamp;pressure;altitude;pressure_sealevel;temperature;humidity
19236;BME280;9752;54.270;12.470;2023-07-16T00:01:09;101290.22;;;22.47;100.00
19236;BME280;9752;54.270;12.470;2023-07-16T00:06:12;101295.56;;;22.50;100.00
19236;BME280;9752;54.270;12.470;2023-07-16T00:11:14;101277.91;;;22.49;100.00
19236;BME280;9752;54.270;12.470;2023-07-16T00:16:16;101276.16;;;22.50;100.00
19236;BME280;9752;54.270;12.470;2023-07-16T00:21:19;101268.22;;;22.50;100.00
19236;BME280;9752;54.270;12.470;2023-07-16T00:26:20;101261.09;;;22.46;100.00
19236;BME280;9752;54.270;12.470;2023-07-16T00:31:22;101277.06;;;22.52;100.00
19236;BME280;9752;54.270;12.470;2023-07-16T00:36:25;101270.03;;;22.52;100.00
19236;BME280;9752;54.270;12.470;2023-07-16T00:41:27;101258.66;;;22.56;100.00
19236;BME280;9752;54.270;12.470;2023-07-16T00:46:28;101398.88;;;22.59;100.00
19236;BME280;9752;54.270;12.470;2023-07-16T00:51:31;100875.16;;;22.42;100.00
19236;BME280;9752;54.270;12.470;2023-07-16T00:56:33;101018.38;;;22.20;100.00
19236;BME280;9752;54.270;12.470;2023-07-16T01:01:37;101357.97;;;22.04;100.00
19236;BME280;9752;54.270;12.470;2023-07-16T01:06:44;101310.28;;;20.89;100.00
19236;BME280;9752;54.270;12.470;2023-07-16T01:11:48;101292.31;;;20.42;100.00
19236;BME280;9752;54.270;12.470;2023-07-16T01:16:50;101290.44;;;20.06;100.00
19236;BME280;9752;54.270;12.470;2023-07-16T01:22:21;101316.84;;;19.80;100.00
19236;BME280;9752;54.270;12.470;2023-07-16T01:27:44;101348.97;;;19.70;100.00
19236;BME280;9752;54.270;12.470;2023-07-16T01:32:53;101356.38;;;19.55;100.00
19236;BME280;9752;54.270;12.470;2023-07-16T01:37:55;101357.13;;;19.50;100.00
19236;BME280;9752;54.270;12.470;2023-07-16T01:42:56;101337.03;;;19.53;100.00
19236;BME280;9752;54.270;12.470;2023-07-16T01:48:07;101349.31;;;19.54;100.00
19236;BME280;9752;54.270;12.470;2023-07-16T01:53:14;101355.56;;;19.57;100.00
19236;BME280;9752;54.270;12.470;2023-07-16T01:58:16;101331.88;;;19.57;100.00
19236;BME280;9752;54.270;12.470;2023-07-16T02:03:19;101339.72;;;19.56;100.00
19236;BME280;9752;54.270;12.470;2023-07-16T02:08:21;101350.81;;;19.45;100.00
19236;BME280;9752;54.270;12.470;2023-07-16T02:13:23;101377.34;;;19.26;100.00
19236;BME280;9752;54.270;12.470;2023-07-16T02:18:26;101390.41;;;18.99;100.00
19236;BME280;9752;54.270;12.470;2023-07-16T02:23:28;101419.66;;;18.82;100.00
19236;BME280;9752;54.270;12.470;2023-07-16T02:28:29;101426.75;;;18.62;100.00
19236;BME280;9752;54.270;12.470;2023-07-16T02:33:32;101429.72;;;18.71;100.00
19236;BME280;9752;54.270;12.470;2023-07-16T02:38:34;101430.66;;;18.73;100.00
19236;BME280;9752;54.270;12.470;2023-07-16T02:43:35;101445.41;;;18.70;100.00
19236;BME280;9752;54.270;12.470;2023-07-16T02:48:38;101468.47;;;18.77;100.00
19236;BME280;9752;54.270;12.470;2023-07-16T02:53:40;101499.13;;;18.77;100.00
19236;BME280;9752;54.270;12.470;2023-07-16T02:58:42;101506.53;;;18.64;100.00
19236;BME280;9752;54.270;12.470;2023-07-16T03:03:45;101508.31;;;18.43;100.00
19236;BME280;9752;54.270;12.470;2023-07-16T03:08:46;101511.00;;;18.22;100.00
19236;BME280;9752;54.270;12.470;2023-07-16T03:13:50;101521.63;;;18.04;100.00
19236;BME280;9752;54.270;12.470;2023-07-16T03:18:54;101530.38;;;17.83;100.00
19236;BME280;9752;54.270;12.470;2023-07-16T03:23:55;101520.56;;;17.79;100.00
19236;BME280;9752;54.270;12.470;2023-07-16T03:28:57;101556.56;;;17.82;100.00
19236;BME280;9752;54.270;12.470;2023-07-16T03:34:01;101691.09;;;17.78;100.00
19236;BME280;9752;54.270;12.470;2023-07-16T03:39:05;101578.88;;;17.72;100.00
19236;BME280;9752;54.270;12.470;2023-07-16T03:44:08;101544.16;;;17.58;100.00
19236;BME280;9752;54.270;12.470;2023-07-16T03:49:12;101696.19;;;17.55;100.00
19236;BME280;9752;54.270;12.470;2023-07-16T03:54:14;101730.56;;;17.43;100.00
19236;BME280;9752;54.270;12.470;2023-07-16T03:59:17;101797.28;;;17.48;100.00
19236;BME280;9752;54.270;12.470;2023-07-16T04:04:21;101833.31;;;17.52;100.00
19236;BME280;9752;54.270;12.470;2023-07-16T04:09:23;101816.13;;;17.40;100.00
19236;BME280;9752;54.270;12.470;2023-07-16T04:14:24;101835.28;;;17.39;100.00
19236;BME280;9752;54.270;12.470;2023-07-16T04:19:28;101848.00;;;17.31;100.00
19236;BME280;9752;54.270;12.470;2023-07-16T04:24:30;101855.00;;;17.30;100.00
19236;BME280;9752;54.270;12.470;2023-07-16T04:29:31;101877.31;;;17.40;100.00
19236;BME280;9752;54.270;12.470;2023-07-16T04:34:34;101796.22;;;17.45;100.00
19236;BME280;9752;54.270;12.470;2023-07-16T04:39:36;101844.13;;;17.41;100.00
19236;BME280;9752;54.270;12.470;2023-07-16T04:44:37;101871.25;;;17.41;100.00
19236;BME280;9752;54.270;12.470;2023-07-16T04:49:40;101854.31;;;17.34;100.00
19236;BME280;9752;54.270;12.470;2023-07-16T04:54:42;101875.00;;;17.28;100.00
19236;BME280;9752;54.270;12.470;2023-07-16T04:59:43;101863.00;;;17.33;100.00
19236;BME280;9752;54.270;12.470;2023-07-16T05:04:46;101824.50;;;17.32;100.00
19236;BME280;9752;54.270;12.470;2023-07-16T05:09:48;101835.88;;;17.33;100.00
19236;BME280;9752;54.270;12.470;2023-07-16T05:14:51;101850.59;;;17.47;100.00
19236;BME280;9752;54.270;12.470;2023-07-16T05:19:54;101846.59;;;17.55;100.00
19236;BME280;9752;54.270;12.470;2023-07-16T05:24:55;101881.59;;;17.56;100.00
19236;BME280;9752;54.270;12.470;2023-07-16T05:29:57;101869.97;;;17.51;100.00
19236;BME280;9752;54.270;12.470;2023-07-16T05:35:00;101881.28;;;17.50;100.00
19236;BME280;9752;54.270;12.470;2023-07-16T05:40:02;101910.16;;;17.68;100.00
19236;BME280;9752;54.270;12.470;2023-07-16T05:45:05;101933.41;;;17.78;100.00
19236;BME280;9752;54.270;12.470;2023-07-16T05:50:09;101934.72;;;17.86;100.00
19236;BME280;9752;54.270;12.470;2023-07-16T05:55:11;101977.31;;;17.99;100.00
19236;BME280;9752;54.270;12.470;2023-07-16T06:00:12;101987.34;;;18.07;100.00
19236;BME280;9752;54.270;12.470;2023-07-16T06:05:18;102000.31;;;18.22;100.00
19236;BME280;9752;54.270;12.470;2023-07-16T06:10:19;102014.28;;;18.77;100.00
19236;BME280;9752;54.270;12.470;2023-07-16T06:15:21;102034.53;;;19.17;100.00
19236;BME280;9752;54.270;12.470;2023-07-16T06:20:24;102013.59;;;20.01;100.00
19236;BME280;9752;54.270;12.470;2023-07-16T06:25:26;101963.41;;;20.19;100.00
19236;BME280;9752;54.270;12.470;2023-07-16T06:30:27;101933.25;;;20.57;100.00
19236;BME280;9752;54.270;12.470;2023-07-16T06:35:32;101882.19;;;20.78;100.00
19236;BME280;9752;54.270;12.470;2023-07-16T06:40:34;101844.50;;;21.08;100.00
19236;BME280;9752;54.270;12.470;2023-07-16T06:45:35;101802.84;;;20.97;100.00
19236;BME280;9752;54.270;12.470;2023-07-16T06:50:38;101687.34;;;20.60;100.00
19236;BME280;9752;54.270;12.470;2023-07-16T06:55:40;101682.13;;;20.89;100.00
19236;BME280;9752;54.270;12.470;2023-07-16T07:00:42;101681.88;;;21.37;100.00
19236;BME280;9752;54.270;12.470;2023-07-16T07:05:45;101670.63;;;21.14;100.00
19236;BME280;9752;54.270;12.470;2023-07-16T07:10:48;101666.75;;;21.31;100.00
19236;BME280;9752;54.270;12.470;2023-07-16T07:15:50;101660.88;;;20.84;100.00
19236;BME280;9752;54.270;12.470;2023-07-16T07:20:53;101660.16;;;21.45;100.00
19236;BME280;9752;54.270;12.470;2023-07-16T07:25:54;101643.66;;;21.53;100.00
19236;BME280;9752;54.270;12.470;2023-07-16T07:30:57;101717.97;;;21.97;100.00
19236;BME280;9752;54.270;12.470;2023-07-16T07:36:00;101599.69;;;22.20;100.00
19236;BME280;9752;54.270;12.470;2023-07-16T07:41:02;101600.03;;;22.32;100.00
19236;BME280;9752;54.270;12.470;2023-07-16T07:46:05;101600.38;;;22.46;100.00
19236;BME280;9752;54.270;12.470;2023-07-16T07:51:08;101600.88;;;22.68;100.00
19236;BME280;9752;54.270;12.470;2023-07-16T07:56:10;101602.19;;;22.87;100.00
19236;BME280;9752;54.270;12.470;2023-07-16T08:01:12;101588.94;;;22.85;100.00
19236;BME280;9752;54.270;12.470;2023-07-16T08:06:15;101587.75;;;23.09;100.00
19236;BME280;9752;54.270;12.470;2023-07-16T08:11:17;101587.84;;;23.59;100.00
19236;BME280;9752;54.270;12.470;2023-07-16T08:16:18;101597.78;;;24.18;100.00
19236;BME280;9752;54.270;12.470;2023-07-16T08:21:21;101594.47;;;23.80;100.00
19236;BME280;9752;54.270;12.470;2023-07-16T08:26:23;101604.19;;;24.86;100.00
19236;BME280;9752;54.270;12.470;2023-07-16T08:31:25;101606.09;;;25.63;100.00
19236;BME280;9752;54.270;12.470;2023-07-16T08:36:28;101595.41;;;24.90;100.00
19236;BME280;9752;54.270;12.470;2023-07-16T08:41:29;101595.19;;;24.74;100.00
19236;BME280;9752;54.270;12.470;2023-07-16T08:46:32;101603.09;;;25.36;100.00
19236;BME280;9752;54.270;12.470;2023-07-16T08:51:36;101588.28;;;24.31;100.00
19236;BME280;9752;54.270;12.470;2023-07-16T08:56:39;101603.88;;;24.63;100.00
19236;BME280;9752;54.270;12.470;2023-07-16T09:01:41;101582.81;;;24.20;100.00
19236;BME280;9752;54.270;12.470;2023-07-16T09:06:44;101611.44;;;24.98;100.00
19236;BME280;9752;54.270;12.470;2023-07-16T09:11:46;101621.88;;;26.37;100.00
19236;BME280;9752;54.270;12.470;2023-07-16T09:16:48;101621.22;;;26.61;100.00
19236;BME280;9752;54.270;12.470;2023-07-16T09:21:52;101606.56;;;26.09;100.00
19236;BME280;9752;54.270;12.470;2023-07-16T09:26:54;101599.66;;;26.30;100.00
19236;BME280;9752;54.270;12.470;2023-07-16T09:31:58;101592.94;;;25.77;100.00
19236;BME280;9752;54.270;12.470;2023-07-16T09:37:02;101592.25;;;25.94;100.00
19236;BME280;9752;54.270;12.470;2023-07-16T09:42:05;101604.91;;;25.38;100.00
19236;BME280;9752;54.270;12.470;2023-07-16T09:47:07;101600.19;;;25.17;100.00
19236;BME280;9752;54.270;12.470;2023-07-16T09:52:10;101631.94;;;26.75;100.00
19236;BME280;9752;54.270;12.470;2023-07-16T09:57:14;101625.06;;;27.09;100.00
19236;BME280;9752;54.270;12.470;2023-07-16T10:02:16;101630.53;;;27.34;100.00
19236;BME280;9752;54.270;12.470;2023-07-16T10:07:21;101594.22;;;26.15;100.00
19236;BME280;9752;54.270;12.470;2023-07-16T10:12:25;101611.56;;;26.75;100.00
19236;BME280;9752;54.270;12.470;2023-07-16T10:17:26;101597.44;;;25.83;100.00
19236;BME280;9752;54.270;12.470;2023-07-16T10:22:34;101616.25;;;25.26;100.00
19236;BME280;9752;54.270;12.470;2023-07-16T10:27:37;101606.88;;;24.32;100.00
19236;BME280;9752;54.270;12.470;2023-07-16T10:32:39;101601.31;;;24.19;100.00
19236;BME280;9752;54.270;12.470;2023-07-16T10:37:42;101591.06;;;23.43;100.00
19236;BME280;9752;54.270;12.470;2023-07-16T10:42:45;101602.34;;;23.32;100.00
19236;BME280;9752;54.270;12.470;2023-07-16T10:47:53;101626.28;;;23.83;100.00
19236;BME280;9752;54.270;12.470;2023-07-16T10:52:56;101605.16;;;23.00;100.00
19236;BME280;9752;54.270;12.470;2023-07-16T10:57:58;101632.69;;;23.94;100.00
19236;BME280;9752;54.270;12.470;2023-07-16T11:03:00;101623.13;;;24.52;100.00
19236;BME280;9752;54.270;12.470;2023-07-16T11:08:03;101653.94;;;25.66;100.00
19236;BME280;9752;54.270;12.470;2023-07-16T11:13:05;101669.50;;;26.07;100.00
19236;BME280;9752;54.270;12.470;2023-07-16T11:18:07;101718.03;;;26.77;100.00
19236;BME280;9752;54.270;12.470;2023-07-16T11:23:11;101647.41;;;27.34;100.00
19236;BME280;9752;54.270;12.470;2023-07-16T11:28:13;101645.00;;;28.28;100.00
19236;BME280;9752;54.270;12.470;2023-07-16T11:33:14;101649.47;;;28.38;100.00
19236;BME280;9752;54.270;12.470;2023-07-16T11:38:19;101647.66;;;28.14;100.00
19236;BME280;9752;54.270;12.470;2023-07-16T11:43:21;101642.00;;;27.23;100.00
19236;BME280;9752;54.270;12.470;2023-07-16T11:48:22;101713.75;;;26.04;100.00
19236;BME280;9752;54.270;12.470;2023-07-16T11:53:26;101653.19;;;26.67;100.00
19236;BME280;9752;54.270;12.470;2023-07-16T11:58:27;101673.44;;;28.06;100.00
19236;BME280;9752;54.270;12.470;2023-07-16T12:03:29;101640.50;;;26.34;100.00
19236;BME280;9752;54.270;12.470;2023-07-16T12:08:32;101624.69;;;25.63;100.00
19236;BME280;9752;54.270;12.470;2023-07-16T12:13:33;101663.47;;;26.27;100.00
19236;BME280;9752;54.270;12.470;2023-07-16T12:18:35;101663.88;;;26.75;100.00
19236;BME280;9752;54.270;12.470;2023-07-16T12:23:38;101684.84;;;27.65;100.00
19236;BME280;9752;54.270;12.470;2023-07-16T12:28:40;101662.06;;;26.69;100.00
19236;BME280;9752;54.270;12.470;2023-07-16T12:33:41;101653.34;;;25.20;100.00
19236;BME280;9752;54.270;12.470;2023-07-16T12:38:44;101668.06;;;26.43;100.00
19236;BME280;9752;54.270;12.470;2023-07-16T12:43:46;101654.66;;;25.50;100.00
19236;BME280;9752;54.270;12.470;2023-07-16T12:48:48;101656.97;;;25.25;100.00
19236;BME280;9752;54.270;12.470;2023-07-16T12:53:51;101664.03;;;25.23;100.00
19236;BME280;9752;54.270;12.470;2023-07-16T12:58:53;101666.94;;;25.40;100.00
19236;BME280;9752;54.270;12.470;2023-07-16T13:03:54;101665.38;;;25.58;100.00
19236;BME280;9752;54.270;12.470;2023-07-16T13:08:57;101695.63;;;25.08;100.00
19236;BME280;9752;54.270;12.470;2023-07-16T13:13:59;101702.66;;;25.03;100.00
19236;BME280;9752;54.270;12.470;2023-07-16T13:19:01;101695.41;;;24.94;100.00
19236;BME280;9752;54.270;12.470;2023-07-16T13:24:05;101713.72;;;25.32;100.00
19236;BME280;9752;54.270;12.470;2023-07-16T13:29:07;101697.09;;;24.37;100.00
19236;BME280;9752;54.270;12.470;2023-07-16T13:34:08;101709.47;;;24.85;100.00
19236;BME280;9752;54.270;12.470;2023-07-16T13:39:11;101702.84;;;24.59;100.00
19236;BME280;9752;54.270;12.470;2023-07-16T13:44:13;101731.66;;;24.92;100.00
19236;BME280;9752;54.270;12.470;2023-07-16T13:49:15;101964.84;;;25.18;100.00
19236;BME280;9752;54.270;12.470;2023-07-16T13:54:18;101768.38;;;25.79;100.00
19236;BME280;9752;54.270;12.470;2023-07-16T13:59:19;101754.41;;;25.29;100.00
19236;BME280;9752;54.270;12.470;2023-07-16T14:04:21;101748.69;;;25.05;100.00
19236;BME280;9752;54.270;12.470;2023-07-16T14:09:24;101985.25;;;25.20;100.00
19236;BME280;9752;54.270;12.470;2023-07-16T14:14:26;101781.25;;;25.49;100.00
19236;BME280;9752;54.270;12.470;2023-07-16T14:19:27;101761.56;;;24.80;100.00
19236;BME280;9752;54.270;12.470;2023-07-16T14:24:31;101743.56;;;24.16;100.00
19236;BME280;9752;54.270;12.470;2023-07-16T14:29:33;101769.75;;;25.50;100.00
19236;BME280;9752;54.270;12.470;2023-07-16T14:34:34;101790.66;;;25.90;100.00
19236;BME280;9752;54.270;12.470;2023-07-16T14:39:37;101786.88;;;27.38;100.00
19236;BME280;9752;54.270;12.470;2023-07-16T14:44:39;101773.78;;;26.60;100.00
19236;BME280;9752;54.270;12.470;2023-07-16T14:49:41;101792.53;;;27.99;100.00
19236;BME280;9752;54.270;12.470;2023-07-16T14:54:44;101743.97;;;26.09;100.00
19236;BME280;9752;54.270;12.470;2023-07-16T14:59:46;101759.41;;;25.11;100.00
19236;BME280;9752;54.270;12.470;2023-07-16T15:04:48;101769.34;;;25.87;100.00
19236;BME280;9752;54.270;12.470;2023-07-16T15:09:51;101790.66;;;27.84;100.00
19236;BME280;9752;54.270;12.470;2023-07-16T15:14:53;101799.47;;;27.67;100.00
19236;BME280;9752;54.270;12.470;2023-07-16T15:19:55;101845.38;;;25.73;100.00
19236;BME280;9752;54.270;12.470;2023-07-16T15:24:58;101809.88;;;27.25;100.00
19236;BME280;9752;54.270;12.470;2023-07-16T15:30:00;101778.59;;;24.93;100.00
19236;BME280;9752;54.270;12.470;2023-07-16T15:35:03;101773.25;;;24.44;100.00
19236;BME280;9752;54.270;12.470;2023-07-16T15:40:13;101834.47;;;27.01;100.00
19236;BME280;9752;54.270;12.470;2023-07-16T15:45:15;101816.81;;;28.93;98.87
19236;BME280;9752;54.270;12.470;2023-07-16T15:50:17;101764.50;;;26.25;100.00
19236;BME280;9752;54.270;12.470;2023-07-16T15:55:20;101813.91;;;28.06;100.00
19236;BME280;9752;54.270;12.470;2023-07-16T16:00:22;101887.69;;;26.95;100.00
19236;BME280;9752;54.270;12.470;2023-07-16T16:05:26;101783.44;;;25.80;100.00
19236;BME280;9752;54.270;12.470;2023-07-16T16:10:29;101757.38;;;25.52;100.00
19236;BME280;9752;54.270;12.470;2023-07-16T16:15:30;101816.66;;;28.29;100.00
19236;BME280;9752;54.270;12.470;2023-07-16T16:20:32;101826.63;;;29.39;98.77
19236;BME280;9752;54.270;12.470;2023-07-16T16:25:35;101815.78;;;28.25;100.00
19236;BME280;9752;54.270;12.470;2023-07-16T16:30:39;101821.16;;;28.42;91.84
19236;BME280;9752;54.270;12.470;2023-07-16T16:35:42;101775.22;;;26.33;91.64
19236;BME280;9752;54.270;12.470;2023-07-16T16:40:45;101799.53;;;25.90;100.00
19236;BME280;9752;54.270;12.470;2023-07-16T16:45:47;101803.41;;;26.13;100.00
19236;BME280;9752;54.270;12.470;2023-07-16T16:50:53;101796.50;;;26.33;100.00
19236;BME280;9752;54.270;12.470;2023-07-16T16:55:56;101755.50;;;24.87;100.00
19236;BME280;9752;54.270;12.470;2023-07-16T17:00:58;101773.22;;;24.90;100.00
19236;BME280;9752;54.270;12.470;2023-07-16T17:06:00;101840.84;;;28.92;100.00
19236;BME280;9752;54.270;12.470;2023-07-16T17:11:03;102020.00;;;30.00;94.11
19236;BME280;9752;54.270;12.470;2023-07-16T17:16:04;101951.31;;;29.95;92.44
19236;BME280;9752;54.270;12.470;2023-07-16T17:21:06;101825.47;;;30.34;90.87
19236;BME280;9752;54.270;12.470;2023-07-16T17:26:09;101813.25;;;29.41;92.76
19236;BME280;9752;54.270;12.470;2023-07-16T17:31:12;101819.44;;;28.79;96.26
19236;BME280;9752;54.270;12.470;2023-07-16T17:36:14;101802.66;;;27.18;100.00
19236;BME280;9752;54.270;12.470;2023-07-16T17:41:16;101844.06;;;27.89;100.00
19236;BME280;9752;54.270;12.470;2023-07-16T17:46:18;101831.00;;;27.08;100.00
19236;BME280;9752;54.270;12.470;2023-07-16T17:51:20;101844.16;;;28.11;100.00
19236;BME280;9752;54.270;12.470;2023-07-16T17:56:23;101828.25;;;26.99;100.00
19236;BME280;9752;54.270;12.470;2023-07-16T18:01:25;101828.84;;;26.68;100.00
19236;BME280;9752;54.270;12.470;2023-07-16T18:06:31;101798.25;;;25.04;100.00
19236;BME280;9752;54.270;12.470;2023-07-16T18:11:34;101795.41;;;24.46;100.00
19236;BME280;9752;54.270;12.470;2023-07-16T18:16:36;101825.84;;;25.17;100.00
19236;BME280;9752;54.270;12.470;2023-07-16T18:21:38;101889.19;;;25.43;100.00
19236;BME280;9752;54.270;12.470;2023-07-16T18:26:41;101847.22;;;25.78;100.00
19236;BME280;9752;54.270;12.470;2023-07-16T18:31:42;101874.41;;;26.96;100.00
19236;BME280;9752;54.270;12.470;2023-07-16T18:36:44;101818.03;;;24.73;100.00
19236;BME280;9752;54.270;12.470;2023-07-16T18:41:47;101813.53;;;23.08;100.00
19236;BME280;9752;54.270;12.470;2023-07-16T18:46:49;101881.56;;;22.48;100.00
19236;BME280;9752;54.270;12.470;2023-07-16T18:51:51;101806.78;;;21.63;100.00
19236;BME280;9752;54.270;12.470;2023-07-16T18:56:54;101787.53;;;21.13;100.00
19236;BME280;9752;54.270;12.470;2023-07-16T19:01:55;101788.00;;;20.74;100.00
19236;BME280;9752;54.270;12.470;2023-07-16T19:06:57;101782.53;;;20.43;100.00
19236;BME280;9752;54.270;12.470;2023-07-16T19:12:02;101785.66;;;20.09;100.00
19236;BME280;9752;54.270;12.470;2023-07-16T19:17:04;101797.56;;;19.75;100.00
19236;BME280;9752;54.270;12.470;2023-07-16T19:22:13;101799.16;;;19.28;100.00
19236;BME280;9752;54.270;12.470;2023-07-16T19:27:16;101793.22;;;18.90;100.00
19236;BME280;9752;54.270;12.470;2023-07-16T19:32:18;101803.06;;;18.55;100.00
19236;BME280;9752;54.270;12.470;2023-07-16T19:37:19;101892.50;;;18.19;100.00
19236;BME280;9752;54.270;12.470;2023-07-16T19:42:22;101883.19;;;17.88;100.00
19236;BME280;9752;54.270;12.470;2023-07-16T19:47:25;101973.19;;;17.69;100.00
19236;BME280;9752;54.270;12.470;2023-07-16T19:52:27;101947.09;;;17.54;100.00
19236;BME280;9752;54.270;12.470;2023-07-16T19:57:30;101963.72;;;17.37;100.00
19236;BME280;9752;54.270;12.470;2023-07-16T20:02:34;101912.34;;;17.24;100.00
19236;BME280;9752;54.270;12.470;2023-07-16T20:07:36;102017.84;;;17.02;100.00
19236;BME280;9752;54.270;12.470;2023-07-16T20:12:39;101999.88;;;16.77;100.00
19236;BME280;9752;54.270;12.470;2023-07-16T20:17:41;101926.91;;;16.68;100.00
19236;BME280;9752;54.270;12.470;2023-07-16T20:22:42;101945.56;;;16.74;100.00
19236;BME280;9752;54.270;12.470;2023-07-16T20:27:53;102026.31;;;16.82;100.00
19236;BME280;9752;54.270;12.470;2023-07-16T20:32:56;101958.00;;;16.62;100.00
19236;BME280;9752;54.270;12.470;2023-07-16T20:38:00;101897.34;;;16.38;100.00
19236;BME280;9752;54.270;12.470;2023-07-16T20:43:03;101886.09;;;16.08;100.00
19236;BME280;9752;54.270;12.470;2023-07-16T20:48:05;101919.38;;;15.79;100.00
19236;BME280;9752;54.270;12.470;2023-07-16T20:53:07;101942.44;;;15.71;100.00
19236;BME280;9752;54.270;12.470;2023-07-16T20:58:10;101923.81;;;15.50;100.00
19236;BME280;9752;54.270;12.470;2023-07-16T21:03:11;101923.97;;;15.38;100.00
19236;BME280;9752;54.270;12.470;2023-07-16T21:08:13;101921.97;;;15.34;100.00
19236;BME280;9752;54.270;12.470;2023-07-16T21:13:16;101917.84;;;15.53;100.00
19236;BME280;9752;54.270;12.470;2023-07-16T21:18:18;101910.34;;;15.44;100.00
19236;BME280;9752;54.270;12.470;2023-07-16T21:23:22;101881.34;;;15.25;100.00
19236;BME280;9752;54.270;12.470;2023-07-16T21:28:25;101902.34;;;15.11;100.00
19236;BME280;9752;54.270;12.470;2023-07-16T21:33:27;101899.69;;;14.96;100.00
19236;BME280;9752;54.270;12.470;2023-07-16T21:38:28;101892.22;;;14.88;100.00
19236;BME280;9752;54.270;12.470;2023-07-16T21:43:31;101974.63;;;14.82;100.00
19236;BME280;9752;54.270;12.470;2023-07-16T21:48:33;101990.53;;;14.72;100.00
19236;BME280;9752;54.270;12.470;2023-07-16T21:53:35;101952.31;;;14.59;100.00
19236;BME280;9752;54.270;12.470;2023-07-16T21:58:38;101933.53;;;14.52;100.00
19236;BME280;9752;54.270;12.470;2023-07-16T22:03:39;101929.34;;;14.40;100.00
19236;BME280;9752;54.270;12.470;2023-07-16T22:08:41;101949.25;;;14.25;100.00
19236;BME280;9752;54.270;12.470;2023-07-16T22:13:44;101954.06;;;14.19;100.00
19236;BME280;9752;54.270;12.470;2023-07-16T22:18:49;101999.13;;;14.03;100.00
19236;BME280;9752;54.270;12.470;2023-07-16T22:23:50;102002.84;;;13.93;100.00
19236;BME280;9752;54.270;12.470;2023-07-16T22:28:54;101981.28;;;13.96;100.00
19236;BME280;9752;54.270;12.470;2023-07-16T22:33:57;101991.19;;;14.15;100.00
19236;BME280;9752;54.270;12.470;2023-07-16T22:38:58;101956.69;;;14.05;100.00
19236;BME280;9752;54.270;12.470;2023-07-16T22:44:01;101958.50;;;13.80;100.00
19236;BME280;9752;54.270;12.470;2023-07-16T22:49:03;101955.06;;;13.67;100.00
19236;BME280;9752;54.270;12.470;2023-07-16T22:54:06;101970.03;;;13.57;100.00
19236;BME280;9752;54.270;12.470;2023-07-16T22:59:09;101970.31;;;13.48;100.00
19236;BME280;9752;54.270;12.470;2023-07-16T23:04:11;101970.00;;;13.43;100.00
19236;BME280;9752;54.270;12.470;2023-07-16T23:09:13;101999.31;;;13.53;100.00
19236;BME280;9752;54.270;12.470;2023-07-16T23:14:16;102016.66;;;13.65;100.00
19236;BME280;9752;54.270;12.470;2023-07-16T23:19:17;102021.47;;;13.59;100.00
19236;BME280;9752;54.270;12.470;2023-07-16T23:24:19;102027.28;;;13.69;100.00
19236;BME280;9752;54.270;12.470;2023-07-16T23:29:22;102021.25;;;13.70;100.00
19236;BME280;9752;54.270;12.470;2023-07-16T23:34:23;102117.19;;;13.74;100.00
19236;BME280;9752;54.270;12.470;2023-07-16T23:39:25;102102.22;;;13.71;100.00
19236;BME280;9752;54.270;12.470;2023-07-16T23:44:29;102109.88;;;13.81;100.00
19236;BME280;9752;54.270;12.470;2023-07-16T23:49:30;102100.06;;;13.91;100.00
19236;BME280;9752;54.270;12.470;2023-07-16T23:54:32;102080.25;;;13.81;100.00
19236;BME280;9752;54.270;12.470;2023-07-16T23:59:35;102081.16;;;13.68;100.00
